createdAt,value
2024-03-02T00:04:12.439Z,99055.78
2024-03-02T00:09:04.452Z,99048.69
2024-03-02T00:13:56.325Z,99063.47
2024-03-02T00:18:48.368Z,99052.03
2024-03-02T00:23:40.803Z,99057.19
2024-03-02T00:28:37.910Z,99064.16
2024-03-02T00:33:38.698Z,99057.34
2024-03-02T00:38:32.246Z,99059.97
2024-03-02T00:43:36.283Z,99064.44
2024-03-02T00:48:28.253Z,99065.41
2024-03-02T00:53:25.875Z,99070.81
2024-03-02T00:58:17.749Z,99063.59
2024-03-02T01:03:09.858Z,99065.41
2024-03-02T01:08:01.672Z,99068.91
2024-03-02T01:12:53.675Z,99069.88
2024-03-02T01:17:45.616Z,99078.66
2024-03-02T01:22:38.253Z,99077.81
2024-03-02T01:27:30.168Z,99073.47
2024-03-02T01:32:22.170Z,99070.97
2024-03-02T01:37:14.161Z,99069.88
2024-03-02T01:42:06.168Z,99066.38
2024-03-02T01:46:57.967Z,99070.97
2024-03-02T01:51:50.115Z,99070.97
2024-03-02T01:56:42.124Z,99078.91
2024-03-02T02:01:34.299Z,99068.31
2024-03-02T02:06:26.263Z,99075.31
2024-03-02T02:11:18.468Z,99078.66
2024-03-02T02:16:10.443Z,99066.78
2024-03-02T02:21:02.317Z,99068.06
2024-03-02T02:25:54.106Z,99067.22
2024-03-02T02:30:46.090Z,99062.16
2024-03-02T02:35:37.904Z,99057.72
2024-03-02T02:40:32.577Z,99057.72
2024-03-02T02:45:24.600Z,99060.25
2024-03-02T02:50:16.745Z,99050.50
2024-03-02T02:55:10.561Z,99058.69
2024-03-02T03:00:18.523Z,99056.06
2024-03-02T03:05:13.449Z,99056.88
2024-03-02T03:10:05.809Z,99056.75
2024-03-02T03:14:58.367Z,99062.16
2024-03-02T03:19:51.245Z,99062.31
2024-03-02T03:24:43.196Z,99057.97
2024-03-02T03:29:35.123Z,99072.91
2024-03-02T03:34:26.944Z,99054.22
2024-03-02T03:39:19.070Z,99043.06
2024-03-02T03:44:10.964Z,99056.06
2024-03-02T03:49:02.872Z,99056.06
2024-03-02T03:53:54.628Z,99049.06
2024-03-02T03:58:46.440Z,99076.38
2024-03-02T04:03:39.682Z,99078.19
2024-03-02T04:08:31.560Z,99078.19
2024-03-02T04:13:23.440Z,99076.38
2024-03-02T04:18:15.228Z,99084.22
2024-03-02T04:23:07.094Z,99092.97
2024-03-02T04:27:59.456Z,99095.63
2024-03-02T04:32:51.321Z,99096.47
2024-03-02T04:37:43.740Z,99102.50
2024-03-02T04:42:36.326Z,99100.81
2024-03-02T04:47:28.288Z,99109.59
2024-03-02T04:52:20.209Z,99107.91
2024-03-02T04:57:12.089Z,99110.28
2024-03-02T05:02:03.934Z,99119.06
2024-03-02T05:06:57.868Z,99115.72
2024-03-02T05:12:08.317Z,99119.06
2024-03-02T05:17:00.188Z,99127.97
2024-03-02T05:21:53.094Z,99120.88
2024-03-02T05:26:45.071Z,99137.75
2024-03-02T05:31:36.931Z,99138.47
2024-03-02T05:36:28.801Z,99143.88
2024-03-02T05:41:20.759Z,99146.50
2024-03-02T05:46:13.096Z,99150.00
2024-03-02T05:51:05.138Z,99148.19
2024-03-02T05:55:57.144Z,99148.34
2024-03-02T06:00:49.307Z,99157.00
2024-03-02T06:05:41.978Z,99159.75
2024-03-02T06:10:33.864Z,99170.69
2024-03-02T06:15:25.772Z,99169.72
2024-03-02T06:20:17.636Z,99164.94
2024-03-02T06:25:10.023Z,99174.00
2024-03-02T06:30:02.281Z,99182.38
2024-03-02T06:34:54.431Z,99178.03
2024-03-02T06:39:46.249Z,99201.72
2024-03-02T06:44:38.120Z,99202.59
2024-03-02T06:49:29.961Z,99199.94
2024-03-02T06:54:21.698Z,99202.59
2024-03-02T06:59:13.518Z,99211.50
2024-03-02T07:04:07.581Z,99208.13
2024-03-02T07:08:59.323Z,99217.75
2024-03-02T07:13:51.029Z,99228.22
2024-03-02T07:18:43.528Z,99225.56
2024-03-02T07:23:35.520Z,99229.22
2024-03-02T07:28:27.693Z,99236.16
2024-03-02T07:33:19.579Z,99249.28
2024-03-02T07:38:11.329Z,99258.22
2024-03-02T07:43:03.205Z,99260.13
2024-03-02T07:47:55.035Z,99261.81
2024-03-02T07:52:47.060Z,99271.44
2024-03-02T07:57:38.872Z,99274.34
2024-03-02T08:02:30.639Z,99277.72
2024-03-02T08:07:22.460Z,99278.66
2024-03-02T08:12:14.178Z,99273.50
2024-03-02T08:17:10.692Z,99285.66
2024-03-02T08:22:02.776Z,99294.41
2024-03-02T08:26:54.636Z,99298.16
2024-03-02T08:31:46.477Z,99302.88
2024-03-02T08:36:39.297Z,99309.72
2024-03-02T08:41:31.280Z,99317.22
2024-03-02T08:46:23.098Z,99304.72
2024-03-02T08:51:14.916Z,99315.28
2024-03-02T08:56:07.757Z,99311.78
2024-03-02T09:00:59.746Z,99313.72
2024-03-02T09:05:51.595Z,99311.78
2024-03-02T09:10:43.546Z,99320.34
2024-03-02T09:15:38.722Z,99319.97
2024-03-02T09:20:30.700Z,99303.53
2024-03-02T09:25:22.464Z,99323.84
2024-03-02T09:30:15.052Z,99314.59
2024-03-02T09:35:07.223Z,99308.97
2024-03-02T09:39:59.115Z,99318.34
2024-03-02T09:44:51.127Z,99317.25
2024-03-02T09:49:42.924Z,99323.00
2024-03-02T09:54:34.804Z,99334.31
2024-03-02T09:59:26.733Z,99323.13
2024-03-02T10:04:19.010Z,99337.09
2024-03-02T10:09:10.786Z,99318.22
2024-03-02T10:14:10.182Z,99349.72
2024-03-02T10:19:19.893Z,99355.25
2024-03-02T10:24:11.778Z,99351.41
2024-03-02T10:29:03.574Z,99348.75
2024-03-02T10:33:56.428Z,99348.50
2024-03-02T10:38:49.650Z,99346.81
2024-03-02T10:43:41.555Z,99333.56
2024-03-02T10:48:36.803Z,99343.19
2024-03-02T10:53:28.566Z,99344.88
2024-03-02T10:58:21.300Z,99348.03
2024-03-02T11:03:14.984Z,99345.84
2024-03-02T11:08:15.579Z,99336.69
2024-03-02T11:13:10.902Z,99336.69
2024-03-02T11:18:06.290Z,99330.44
2024-03-02T11:22:58.033Z,99324.41
2024-03-02T11:27:50.868Z,99335.72
2024-03-02T11:32:42.631Z,99329.47
2024-03-02T11:37:36.303Z,99323.44
2024-03-02T11:42:28.073Z,99321.53
2024-03-02T11:47:19.984Z,99321.53
2024-03-02T11:52:13.225Z,99312.00
2024-03-02T11:57:05.285Z,99317.91
2024-03-02T12:01:58.512Z,99317.28
2024-03-02T12:07:01.881Z,99313.69
2024-03-02T12:12:10.529Z,99309.69
2024-03-02T12:17:02.705Z,99300.03
2024-03-02T12:21:55.510Z,99300.63
2024-03-02T12:26:49.208Z,99293.84
2024-03-02T12:31:41.040Z,99285.31
2024-03-02T12:36:39.417Z,99279.06
2024-03-02T12:41:32.846Z,99283.25
2024-03-02T12:46:25.373Z,99277.25
2024-03-02T12:51:17.191Z,99283.00
2024-03-02T12:56:09.651Z,99291.09
2024-03-02T13:01:10.730Z,99286.63
2024-03-02T13:06:02.767Z,99274.97
2024-03-02T13:10:55.463Z,99294.31
2024-03-02T13:15:47.368Z,99301.53
2024-03-02T13:20:40.203Z,99296.25
2024-03-02T13:25:33.699Z,99284.44
2024-03-02T13:30:25.608Z,99273.72
2024-03-02T13:35:17.380Z,99275.78
2024-03-02T13:40:14.287Z,99264.22
2024-03-02T13:45:07.606Z,99271.31
2024-03-02T13:49:59.427Z,99278.44
2024-03-02T13:54:53.525Z,99267.63
2024-03-02T13:59:45.548Z,99268.22
2024-03-02T14:04:38.060Z,99272.41
2024-03-02T14:09:31.018Z,99269.91
2024-03-02T14:14:22.910Z,99272.66
2024-03-02T14:19:14.716Z,99274.34
2024-03-02T14:24:08.260Z,99279.63
2024-03-02T14:29:02.443Z,99273.75
2024-03-02T14:33:54.584Z,99287.59
2024-03-02T14:38:47.024Z,99286.84
2024-03-02T14:43:38.781Z,99291.91
2024-03-02T14:48:31.115Z,99287.72
2024-03-02T14:53:22.827Z,99297.22
2024-03-02T14:58:14.568Z,99301.41
2024-03-02T15:03:09.672Z,99302.66
2024-03-02T15:08:03.495Z,99297.06
2024-03-02T15:12:55.339Z,99297.22
2024-03-02T15:17:47.114Z,99291.66
2024-03-02T15:22:38.834Z,99296.09
2024-03-02T15:27:30.709Z,99282.03
2024-03-02T15:32:22.555Z,99276.75
2024-03-02T15:37:14.505Z,99275.19
2024-03-02T15:42:06.646Z,99276.50
2024-03-02T15:46:59.689Z,99285.13
2024-03-02T15:51:51.879Z,99291.44
2024-03-02T15:56:43.685Z,99286.47
2024-03-02T16:01:35.607Z,99281.91
2024-03-02T16:06:27.528Z,99288.88
2024-03-02T16:11:19.388Z,99286.63
2024-03-02T16:16:12.729Z,99287.34
2024-03-02T16:21:05.288Z,99273.31
2024-03-02T16:25:57.061Z,99294.31
2024-03-02T16:30:48.984Z,99298.75
2024-03-02T16:35:40.849Z,99292.63
2024-03-02T16:40:32.948Z,99304.53
2024-03-02T16:45:24.867Z,99316.81
2024-03-02T16:50:17.832Z,99314.88
2024-03-02T16:55:10.080Z,99312.34
2024-03-02T17:00:01.871Z,99328.97
2024-03-02T17:04:54.452Z,99320.03
2024-03-02T17:09:46.435Z,99316.69
2024-03-02T17:14:38.214Z,99321.00
2024-03-02T17:19:29.982Z,99330.78
2024-03-02T17:24:21.807Z,99322.84
2024-03-02T17:29:13.573Z,99328.13
2024-03-02T17:34:05.385Z,99335.94
2024-03-02T17:38:57.613Z,99338.72
2024-03-02T17:43:49.442Z,99332.69
2024-03-02T17:48:41.369Z,99328.50
2024-03-02T17:53:33.339Z,99328.50
2024-03-02T17:58:25.031Z,99337.41
2024-03-02T18:03:16.775Z,99337.66
2024-03-02T18:08:08.492Z,99342.81
2024-03-02T18:13:00.321Z,99357.16
2024-03-02T18:17:52.105Z,99352.81
2024-03-02T18:22:43.764Z,99352.00
2024-03-02T18:27:37.045Z,99366.31
2024-03-02T18:32:28.903Z,99375.69
2024-03-02T18:37:23.207Z,99377.75
2024-03-02T18:42:16.330Z,99378.47
2024-03-02T18:47:08.538Z,99375.69
2024-03-02T18:52:00.354Z,99383.78
2024-03-02T18:56:52.423Z,99366.19
2024-03-02T19:01:44.297Z,99371.38
2024-03-02T19:06:36.174Z,99367.16
2024-03-02T19:11:28.044Z,99363.56
2024-03-02T19:16:19.984Z,99373.03
2024-03-02T19:21:11.857Z,99375.34
2024-03-02T19:26:05.021Z,99368.00
2024-03-02T19:30:57.185Z,99372.31
2024-03-02T19:35:49.033Z,99379.31
2024-03-02T19:40:41.089Z,99388.34
2024-03-02T19:45:32.893Z,99387.50
2024-03-02T19:50:24.704Z,99383.06
2024-03-02T19:55:18.086Z,99375.09
2024-03-02T20:00:10.966Z,99376.06
2024-03-02T20:05:02.691Z,99365.47
2024-03-02T20:09:55.277Z,99356.44
2024-03-02T20:14:47.064Z,99351.84
2024-03-02T20:19:41.974Z,99357.41
2024-03-02T20:24:33.721Z,99358.50
2024-03-02T20:29:25.482Z,99371.59
2024-03-02T20:34:19.183Z,99358.50
2024-03-02T20:39:11.180Z,99362.97
2024-03-02T20:44:04.980Z,99366.31
2024-03-02T20:48:58.317Z,99357.53
2024-03-02T20:53:50.171Z,99362.09
2024-03-02T20:58:42.408Z,99361.28
2024-03-02T21:03:34.451Z,99354.28
2024-03-02T21:08:26.148Z,99340.91
2024-03-02T21:13:18.189Z,99336.59
2024-03-02T21:18:10.039Z,99342.97
2024-03-02T21:23:01.794Z,99344.66
2024-03-02T21:27:53.560Z,99359.97
2024-03-02T21:32:45.743Z,99352.84
2024-03-02T21:37:37.416Z,99345.03
2024-03-02T21:42:29.152Z,99350.34
2024-03-02T21:47:20.953Z,99346.81
2024-03-02T21:52:12.979Z,99350.56
2024-03-02T21:57:07.311Z,99359.38
2024-03-02T22:01:59.190Z,99357.56
2024-03-02T22:06:51.028Z,99344.44
2024-03-02T22:11:42.726Z,99337.59
2024-03-02T22:16:37.030Z,99345.41
2024-03-02T22:21:28.683Z,99347.09
2024-03-02T22:26:20.500Z,99343.59
2024-03-02T22:31:12.344Z,99349.03
2024-03-02T22:36:06.977Z,99351.66
2024-03-02T22:40:58.672Z,99352.41
2024-03-02T22:45:51.780Z,99346.25
2024-03-02T22:50:43.680Z,99342.03
2024-03-02T22:55:35.424Z,99342.75
2024-03-02T23:00:37.667Z,99356.00
2024-03-02T23:05:30.667Z,99351.81
2024-03-02T23:10:22.420Z,99349.97
2024-03-02T23:15:14.132Z,99343.72
2024-03-02T23:20:06.849Z,99334.97
2024-03-02T23:24:58.537Z,99334.69
2024-03-02T23:29:50.232Z,99316.06
2024-03-02T23:34:41.911Z,99314.84
2024-03-02T23:39:51.965Z,99303.28
2024-03-02T23:44:43.647Z,99309.44
2024-03-02T23:49:35.337Z,99320.13
2024-03-02T23:54:27.089Z,99313.78
2024-03-02T23:59:19.291Z,99312.09
